Weather at Abu Dhabi International Airport

Public forecast

Using degrees Celsius for public forecast. Weather courtesy of forecast.io.

Current aviation weather report (METAR) for Abu Dhabi International Airport

Report is more than 6 hours old.

2022/11/14 15:00 (retrieved 2 years ago)

OMAA 141500Z 32010KT CAVOK 29/20 Q1014 NOSIG

Aviation forecast (TAF) for Abu Dhabi International Airport

Forecast is more than 12 hours old.

2023/02/22 18:00 (retrieved 1 year ago)

TAF OMAA 221700Z 2218/2400 20005KT 8000 NSC PROB30 2300/2304 VRB02KT 4000 HZ BECMG 2307/2309 32010KT BECMG 2315/2317 05005KT